Farmington, Connecticut
Current Conditions -  °F | °C
As of 2:53 PM on Saturday 20 Dec 2014 (Local Time) from KHFD Reporting Station
Overcast Overcast  
Wind Chill: 25°   Ceiling: 3200
Heat Index: 30°   Visibility: 10mi
Dew Point: 20°   Wind: 5mph
Humidity: 66%   Direction: NA
Pressure: 30.27"   Gusts: NA
Location:  41.72°N, 72.83°W
Report Text: KHFD 201953Z VRB04KT 10SM OVC032 M01/M07 A3027 RMK AO2 SLP249 T10111067
Loading
Personal Weather Stations






























Interactive Weather Map New forecast layout! Learn more

10-Day Weather Forecast

Advertisements
Track Severe Weather on mobile